Terminal Aerodrome Forecast
Issued by NWS

Home | Current Version | Previous Version | Text Only | Print | Product List | Glossary On
Versions: 1 2 3 4 5 6 7 8 9 10 11 12 13 14 15
000
FTUS43 KGRR 262346
TAFLAN
TAF
KLAN 262346Z 2700/2724 25007KT P6SM SCT200
     FM270600 20004KT 5SM BR BKN200
     FM271000 18004KT 2SM BR SCT015
     FM271300 17006KT 5SM BR SCT030
     FM271500 18008KT P6SM SCT050
     FM271800 19009KT P6SM VCTS BKN050CB=

USA.gov is the U.S. government's official web portal to all federal, state and local government web resources and services.